Thunder radar more information blitzortung!


Radar de pluja more information rain snow radar


Visita la nostra xarxa de llocs de meteo:

Template documentation
and downloads

And another site



No particular awareness of the weather is required.    There are no Weather-warnings

Pagina Historial Weather Underground text

Diari Resum Abril 14, 2016 Unitats:  Mètric    Imperial   Tant
« Previous Dia
SegĂźent Dia »
Diari Setmana Mensual Anual Personalitzada
  Maxima: Minima: Media:
Temperatura: 24.1 °C 7.6 °C 17.4 °C
Punt de rosada: 8.1 °C 0.2 °C 4 °C
Humitat: 73 % 28 % 43 %
Wind Speed: 27.8 km/h 0.0 km/h 7.9 km/h
RĂ fegues de vent: 27.8 km/h - -
Vent:- - SSW
Pression baro: 1017.8 hPa 1011.7 hPa -
Precipitacions: 0.0 mm    
Historical Graphs
 
 
Dades de taula per Abril 14, 2016
Temps Temperatura Punt de rosada Pression baro Vent Wind Speed RĂ fegues de vent Humitat Rainfall Rate (Hourly)
00:00 9.3 °C 0.7 °C 1015.8 hPa Calm   1.6 km/h 55 % 0.0 mm
00:03 14.0 °C 0.9 °C 1015.8 hPa NNE 2.3 km/h 2.3 km/h 41 % 0.0 mm
00:10 9.2 °C 0.6 °C 1015.8 hPa NE 1.6 km/h 3.2 km/h 55 % 0.0 mm
00:20 9.1 °C 0.8 °C 1016.8 hPa ENE 1.6 km/h 1.6 km/h 56 % 0.0 mm
00:30 8.7 °C 0.4 °C 1016.8 hPa SE 1.6 km/h 1.6 km/h 56 % 0.0 mm
00:40 8.5 °C 0.2 °C 1015.8 hPa SW 1.6 km/h 3.2 km/h 56 % 0.0 mm
00:50 8.4 °C 0.4 °C 1015.8 hPa Calm     57 % 0.0 mm
01:00 8.3 °C 0.5 °C 1015.8 hPa Calm     58 % 0.0 mm
01:10 8.2 °C 0.7 °C 1015.8 hPa Calm   3.2 km/h 59 % 0.0 mm
01:20 8.1 °C 0.8 °C 1015.8 hPa Calm   3.2 km/h 60 % 0.0 mm
01:30 8.2 °C 0.7 °C 1015.8 hPa ESE 1.6 km/h 1.6 km/h 59 % 0.0 mm
01:40 8.2 °C 0.7 °C 1015.8 hPa Calm     59 % 0.0 mm
01:50 8.1 °C 0.3 °C 1015.8 hPa WNW 1.6 km/h 3.2 km/h 58 % 0.0 mm
02:00 7.6 °C 0.6 °C 1015.8 hPa WSW 4.8 km/h 6.4 km/h 61 % 0.0 mm
02:10 7.8 °C 0.7 °C 1015.8 hPa SW 1.6 km/h 4.8 km/h 61 % 0.0 mm
02:20 7.8 °C 0.9 °C 1016.8 hPa Calm   3.2 km/h 62 % 0.0 mm
02:30 8.1 °C 1.2 °C 1016.8 hPa SW 1.6 km/h 1.6 km/h 62 % 0.0 mm
02:40 8.4 °C 1.6 °C 1017.8 hPa Calm   1.6 km/h 62 % 0.0 mm
02:50 8.8 °C 1.9 °C 1017.8 hPa Calm   1.6 km/h 62 % 0.0 mm
03:00 9.4 °C 2.3 °C 1017.8 hPa Calm   1.6 km/h 61 % 0.0 mm
03:10 9.5 °C 2.1 °C 1016.8 hPa NE 3.2 km/h 3.2 km/h 60 % 0.0 mm
03:20 9.3 °C 1.9 °C 1017.8 hPa NE 1.6 km/h 3.2 km/h 60 % 0.0 mm
03:30 10.0 °C 2.8 °C 1017.8 hPa NE 1.6 km/h 3.2 km/h 61 % 0.0 mm
03:40 10.5 °C 2.8 °C 1016.8 hPa South 1.6 km/h 3.2 km/h 59 % 0.0 mm
03:50 10.7 °C 2.8 °C 1017.8 hPa Calm   3.2 km/h 58 % 0.0 mm
04:00 11.1 °C 3.2 °C 1017.8 hPa SW 1.6 km/h 1.6 km/h 58 % 0.0 mm
04:10 11.4 °C 3.2 °C 1017.8 hPa SSW 1.6 km/h 3.2 km/h 57 % 0.0 mm
04:20 11.8 °C 3.6 °C 1017.8 hPa SSW 1.6 km/h 3.2 km/h 57 % 0.0 mm
04:30 12.4 °C 4.1 °C 1017.8 hPa SSW 3.2 km/h 3.2 km/h 57 % 0.0 mm
04:40 12.9 °C 4.3 °C 1017.8 hPa South 1.6 km/h 3.2 km/h 56 % 0.0 mm
04:50 13.2 °C 4.6 °C 1016.8 hPa South 1.6 km/h 4.8 km/h 56 % 0.0 mm
05:00 14.0 °C 5.1 °C 1016.8 hPa SE 3.2 km/h 4.8 km/h 55 % 0.0 mm
05:10 14.7 °C 5.7 °C 1016.8 hPa Calm   3.2 km/h 55 % 0.0 mm
05:20 15.2 °C 5.9 °C 1017.8 hPa Calm   3.2 km/h 54 % 0.0 mm
05:30 15.4 °C 6.1 °C 1017.8 hPa NE 3.2 km/h 4.8 km/h 54 % 0.0 mm
05:35 15.9 °C 6.6 °C 1017.8 hPa ENE 3.2 km/h 3.2 km/h 54 % 0.0 mm
10:37 16.1 °C 6.8 °C 1017.8 hPa NE 3.7 km/h 3.7 km/h 54 % 0.0 mm
10:42 16.0 °C 6.4 °C 1017.8 hPa NE 5.6 km/h 5.6 km/h 53 % 0.0 mm
10:52 16.5 °C 6.9 °C 1016.8 hPa WNW 2.3 km/h 2.3 km/h 53 % 0.0 mm
10:57 16.5 °C 6.9 °C 1016.8 hPa WSW 3.7 km/h 3.7 km/h 53 % 0.0 mm
11:02 16.7 °C 6.8 °C 1017.8 hPa East 3.7 km/h 3.7 km/h 52 % 0.0 mm
11:07 16.9 °C 7.0 °C 1017.8 hPa ESE 3.7 km/h 3.7 km/h 52 % 0.0 mm
11:12 17.6 °C 7.3 °C 1017.8 hPa NE 4.2 km/h 4.2 km/h 51 % 0.0 mm
11:17 17.7 °C 7.2 °C 1016.8 hPa NE 5.6 km/h 5.6 km/h 50 % 0.0 mm
11:22 17.7 °C 7.2 °C 1016.8 hPa ENE 2.3 km/h 2.3 km/h 50 % 0.0 mm
11:32 17.6 °C 7.1 °C 1016.8 hPa ESE 5.6 km/h 5.6 km/h 50 % 0.0 mm
11:37 18.0 °C 7.1 °C 1016.8 hPa SSE 3.7 km/h 3.7 km/h 49 % 0.0 mm
11:47 18.6 °C 7.7 °C 1016.8 hPa NNW 3.7 km/h 3.7 km/h 49 % 0.0 mm
11:52 19.0 °C 7.4 °C 1016.8 hPa NE 3.7 km/h 3.7 km/h 47 % 0.0 mm
11:57 19.4 °C 7.8 °C 1016.8 hPa ESE 3.7 km/h 4.2 km/h 47 % 0.0 mm
12:02 19.7 °C 8.1 °C 1016.8 hPa SW 5.6 km/h 5.6 km/h 47 % 0.0 mm
12:07 19.6 °C 7.3 °C 1016.8 hPa WNW 7.4 km/h 7.4 km/h 45 % 0.0 mm
12:12 19.7 °C 7.7 °C 1016.8 hPa SSE 5.6 km/h 5.6 km/h 46 % 0.0 mm
12:17 20.1 °C 7.8 °C 1015.8 hPa SW 5.3 km/h 5.3 km/h 45 % 0.0 mm
12:22 20.4 °C 7.4 °C 1015.8 hPa South 5.0 km/h 5.0 km/h 43 % 0.0 mm
12:27 20.4 °C 7.4 °C 1015.8 hPa NW 5.6 km/h 5.6 km/h 43 % 0.0 mm
12:32 20.5 °C 7.8 °C 1015.8 hPa WSW 5.6 km/h 5.6 km/h 44 % 0.0 mm
12:37 20.8 °C 7.8 °C 1015.8 hPa SW 7.4 km/h 7.4 km/h 43 % 0.0 mm
12:42 20.4 °C 6.3 °C 1015.8 hPa WSW 9.3 km/h 9.3 km/h 40 % 0.0 mm
12:47 20.5 °C 6.4 °C 1015.8 hPa SE 6.4 km/h 6.4 km/h 40 % 0.0 mm
12:52 21.0 °C 6.9 °C 1015.8 hPa East 3.9 km/h 3.9 km/h 40 % 0.0 mm
12:57 21.7 °C 7.9 °C 1015.8 hPa NW 3.2 km/h 3.2 km/h 41 % 0.0 mm
13:02 21.6 °C 7.1 °C 1015.8 hPa NNE 9.0 km/h 9.0 km/h 39 % 0.0 mm
13:07 21.5 °C 6.9 °C 1015.8 hPa NE 3.7 km/h 5.0 km/h 39 % 0.0 mm
13:12 21.6 °C 6.3 °C 1015.8 hPa NW 9.3 km/h 9.3 km/h 37 % 0.0 mm
13:17 21.8 °C 6.4 °C 1015.8 hPa East 3.7 km/h 4.2 km/h 37 % 0.0 mm
13:22 22.6 °C 6.8 °C 1015.8 hPa SE 17.2 km/h 17.2 km/h 36 % 0.0 mm
13:27 22.9 °C 6.6 °C 1015.8 hPa South 6.1 km/h 6.1 km/h 35 % 0.0 mm
13:32 22.8 °C 6.6 °C 1014.8 hPa SSW 10.0 km/h 10.0 km/h 35 % 0.0 mm
13:37 23.0 °C 4.9 °C 1014.8 hPa SSW 9.7 km/h 9.7 km/h 31 % 0.0 mm
13:42 22.7 °C 4.7 °C 1014.8 hPa WSW 9.3 km/h 9.3 km/h 31 % 0.0 mm
13:47 23.0 °C 4.5 °C 1014.8 hPa SSE 9.3 km/h 9.3 km/h 30 % 0.0 mm
13:52 23.2 °C 4.7 °C 1014.8 hPa NNW 20.4 km/h 20.4 km/h 30 % 0.0 mm
13:57 23.1 °C 4.1 °C 1014.8 hPa West 16.7 km/h 16.7 km/h 29 % 0.0 mm
14:02 23.1 °C 4.1 °C 1013.8 hPa SSW 13.0 km/h 13.0 km/h 29 % 0.0 mm
14:07 23.0 °C 4.0 °C 1013.8 hPa SW 14.8 km/h 14.8 km/h 29 % 0.0 mm
14:12 23.7 °C 4.6 °C 1013.8 hPa South 9.3 km/h 9.3 km/h 29 % 0.0 mm
14:18 23.5 °C 4.4 °C 1012.8 hPa SSW 16.7 km/h 16.7 km/h 29 % 0.0 mm
14:23 23.5 °C 4.4 °C 1012.8 hPa WSW 1.9 km/h 1.9 km/h 29 % 0.0 mm
14:28 24.0 °C 4.8 °C 1012.8 hPa WSW 5.0 km/h 5.3 km/h 29 % 0.0 mm
14:30 19.0 °C 1.9 °C 1012.8 hPa SW 3.2 km/h 3.2 km/h 32 % 0.0 mm
14:33 23.7 °C 4.6 °C 1013.8 hPa SW 11.1 km/h 11.1 km/h 29 % 0.0 mm
14:38 24.1 °C 4.9 °C 1013.8 hPa SSW 4.2 km/h 5.0 km/h 29 % 0.0 mm
14:43 24.0 °C 4.8 °C 1013.8 hPa SW 7.4 km/h 7.4 km/h 29 % 0.0 mm
14:48 24.0 °C 4.8 °C 1013.8 hPa SSE 18.5 km/h 18.5 km/h 29 % 0.0 mm
14:53 23.8 °C 4.7 °C 1013.8 hPa SSW 7.4 km/h 7.4 km/h 29 % 0.0 mm
14:58 24.0 °C 4.8 °C 1013.8 hPa SSW 5.6 km/h 7.2 km/h 29 % 0.0 mm
15:03 23.7 °C 4.1 °C 1013.8 hPa SSW 18.5 km/h 18.5 km/h 28 % 0.0 mm
15:08 23.6 °C 4.0 °C 1013.8 hPa SSW 11.1 km/h 11.1 km/h 28 % 0.0 mm
15:13 23.7 °C 4.6 °C 1013.8 hPa SSE 3.9 km/h 3.9 km/h 29 % 0.0 mm
15:18 23.4 °C 3.8 °C 1013.8 hPa SW 7.4 km/h 7.4 km/h 28 % 0.0 mm
15:23 23.2 °C 3.7 °C 1013.8 hPa SW 14.8 km/h 14.8 km/h 28 % 0.0 mm
15:28 23.1 °C 3.6 °C 1013.8 hPa WSW 14.8 km/h 14.8 km/h 28 % 0.0 mm
15:33 23.2 °C 3.7 °C 1013.8 hPa WSW 20.4 km/h 20.4 km/h 28 % 0.0 mm
15:38 22.8 °C 3.8 °C 1013.8 hPa South 24.8 km/h 24.8 km/h 29 % 0.0 mm
15:43 22.7 °C 4.2 °C 1013.8 hPa SSW 16.7 km/h 16.7 km/h 30 % 0.0 mm
15:48 23.0 °C 4.0 °C 1013.8 hPa SSW 7.4 km/h 7.6 km/h 29 % 0.0 mm
15:53 23.1 °C 3.6 °C 1013.8 hPa SSW 13.0 km/h 14.8 km/h 28 % 0.0 mm
15:58 22.6 °C 3.7 °C 1013.8 hPa SSW 13.0 km/h 14.8 km/h 29 % 0.0 mm
16:03 22.3 °C 3.4 °C 1013.8 hPa SW 23.7 km/h 23.7 km/h 29 % 0.0 mm
16:08 22.6 °C 4.1 °C 1013.8 hPa WSW 7.9 km/h 7.9 km/h 30 % 0.0 mm
16:13 22.8 °C 4.3 °C 1013.8 hPa SSW 9.3 km/h 9.5 km/h 30 % 0.0 mm
16:18 22.5 °C 4.1 °C 1012.8 hPa South 14.8 km/h 14.8 km/h 30 % 0.0 mm
16:23 21.9 °C 3.6 °C 1012.8 hPa South 9.5 km/h 12.2 km/h 30 % 0.0 mm
16:28 22.1 °C 3.7 °C 1012.8 hPa South 9.5 km/h 12.2 km/h 30 % 0.0 mm
16:33 22.2 °C 3.8 °C 1012.8 hPa SW 6.1 km/h 11.4 km/h 30 % 0.0 mm
16:38 22.3 °C 3.9 °C 1012.8 hPa SW 12.6 km/h 12.6 km/h 30 % 0.0 mm
16:43 22.2 °C 3.8 °C 1012.8 hPa WSW 7.4 km/h 7.4 km/h 30 % 0.0 mm
16:48 22.3 °C 3.9 °C 1012.8 hPa WSW 7.4 km/h 7.4 km/h 30 % 0.0 mm
16:53 22.0 °C 3.6 °C 1012.8 hPa SW 13.7 km/h 13.7 km/h 30 % 0.0 mm
16:58 22.2 °C 3.8 °C 1012.8 hPa WSW 14.8 km/h 14.8 km/h 30 % 0.0 mm
17:03 22.1 °C 3.7 °C 1012.8 hPa SW 13.0 km/h 13.0 km/h 30 % 0.0 mm
17:08 22.0 °C 3.6 °C 1012.8 hPa SSW 27.8 km/h 27.8 km/h 30 % 0.0 mm
17:13 21.8 °C 3.4 °C 1012.8 hPa WSW 27.8 km/h 27.8 km/h 30 % 0.0 mm
17:18 22.0 °C 3.6 °C 1011.7 hPa South 13.0 km/h 13.0 km/h 30 % 0.0 mm
17:23 21.9 °C 3.6 °C 1011.7 hPa SW 14.8 km/h 14.8 km/h 30 % 0.0 mm
17:28 21.8 °C 3.4 °C 1011.7 hPa SW 17.2 km/h 17.2 km/h 30 % 0.0 mm
17:33 21.7 °C 3.3 °C 1012.8 hPa SSW 13.0 km/h 13.0 km/h 30 % 0.0 mm
17:38 21.5 °C 2.7 °C 1012.8 hPa SW 22.2 km/h 22.2 km/h 29 % 0.0 mm
17:43 21.5 °C 3.2 °C 1012.8 hPa WSW 9.3 km/h 12.6 km/h 30 % 0.0 mm
17:48 21.4 °C 3.1 °C 1011.7 hPa SW 19.5 km/h 19.5 km/h 30 % 0.0 mm
17:53 21.3 °C 3.0 °C 1011.7 hPa SW 19.5 km/h 19.5 km/h 30 % 0.0 mm
17:58 21.3 °C 3.0 °C 1011.7 hPa WSW 13.0 km/h 13.0 km/h 30 % 0.0 mm
18:03 21.2 °C 2.9 °C 1011.7 hPa SSW 14.8 km/h 14.8 km/h 30 % 0.0 mm
18:08 21.2 °C 2.9 °C 1011.7 hPa SW 16.7 km/h 16.7 km/h 30 % 0.0 mm
18:13 20.9 °C 2.7 °C 1011.7 hPa WSW 16.1 km/h 16.1 km/h 30 % 0.0 mm
18:18 20.9 °C 2.7 °C 1011.7 hPa SSW 14.8 km/h 14.8 km/h 30 % 0.0 mm
18:23 20.9 °C 2.7 °C 1011.7 hPa SSW 18.5 km/h 18.5 km/h 30 % 0.0 mm
18:28 20.7 °C 2.9 °C 1011.7 hPa SSW 16.7 km/h 16.7 km/h 31 % 0.0 mm
18:33 20.6 °C 2.4 °C 1011.7 hPa SW 14.8 km/h 14.8 km/h 30 % 0.0 mm
18:38 20.5 °C 2.3 °C 1011.7 hPa SW 13.0 km/h 14.5 km/h 30 % 0.0 mm
18:43 20.4 °C 2.2 °C 1011.7 hPa SSW 9.3 km/h 11.1 km/h 30 % 0.0 mm
18:48 20.4 °C 2.7 °C 1012.8 hPa SSW 9.3 km/h 11.1 km/h 31 % 0.0 mm
18:53 20.2 °C 2.5 °C 1012.8 hPa South 22.2 km/h 22.2 km/h 31 % 0.0 mm
19:03 20.1 °C 2.4 °C 1012.8 hPa SW 13.7 km/h 14.0 km/h 31 % 0.0 mm
19:08 19.9 °C 2.3 °C 1012.8 hPa SW 13.7 km/h 14.0 km/h 31 % 0.0 mm
19:13 19.7 °C 2.6 °C 1012.8 hPa SW 13.7 km/h 14.0 km/h 32 % 0.0 mm
19:18 19.6 °C 2.4 °C 1012.8 hPa SW 13.7 km/h 14.0 km/h 32 % 0.0 mm
19:20 14.1 °C 4.7 °C 1012.8 hPa West 3.2 km/h 8.0 km/h 53 % 0.0 mm
19:23 19.3 °C 2.2 °C 1012.8 hPa SW 13.7 km/h 14.0 km/h 32 % 0.0 mm
19:30 19.0 °C 1.9 °C 1011.7 hPa SW 13.7 km/h 13.7 km/h 32 % 0.0 mm
19:35 18.9 °C 2.3 °C 1011.7 hPa SW 13.7 km/h 13.7 km/h 33 % 0.0 mm
19:40 18.8 °C 2.2 °C 1011.7 hPa SW 13.7 km/h 13.7 km/h 33 % 0.0 mm
19:45 18.7 °C 2.1 °C 1012.8 hPa SW 13.7 km/h 13.7 km/h 33 % 0.0 mm
19:50 18.6 °C 2.0 °C 1012.8 hPa SW 13.7 km/h 13.7 km/h 33 % 0.0 mm
19:55 18.5 °C 2.3 °C 1012.8 hPa SW 14.0 km/h 14.0 km/h 34 % 0.0 mm
20:00 18.4 °C 2.2 °C 1012.8 hPa SW 14.8 km/h 14.8 km/h 34 % 0.0 mm
20:05 18.3 °C 2.6 °C 1012.8 hPa SW 14.8 km/h 14.8 km/h 35 % 0.0 mm
20:10 18.1 °C 2.4 °C 1012.8 hPa SW 14.8 km/h 14.8 km/h 35 % 0.0 mm
20:15 18.0 °C 2.7 °C 1012.8 hPa SW 14.8 km/h 14.8 km/h 36 % 0.0 mm
20:20 17.8 °C 2.9 °C 1012.8 hPa SW 14.8 km/h 14.8 km/h 37 % 0.0 mm
20:25 17.7 °C 2.8 °C 1012.8 hPa SW 14.8 km/h 14.8 km/h 37 % 0.0 mm
20:30 17.6 °C 3.1 °C 1012.8 hPa SW 14.8 km/h 14.8 km/h 38 % 0.0 mm
20:35 17.5 °C 3.0 °C 1012.8 hPa SW 14.8 km/h 14.8 km/h 38 % 0.0 mm
20:40 13.2 °C 6.1 °C 1012.8 hPa WNW 1.6 km/h 3.2 km/h 62 % 0.0 mm
20:45 17.1 °C 3.0 °C 1012.8 hPa SW 14.8 km/h 14.8 km/h 39 % 0.0 mm
20:50 17.0 °C 2.9 °C 1012.8 hPa SW 14.8 km/h 14.8 km/h 39 % 0.0 mm
20:55 16.9 °C 3.2 °C 1012.8 hPa SW 14.8 km/h 14.8 km/h 40 % 0.0 mm
21:00 16.8 °C 3.1 °C 1012.8 hPa SW 14.8 km/h 14.8 km/h 40 % 0.0 mm
21:05 16.6 °C 2.9 °C 1012.8 hPa SW 14.8 km/h 14.8 km/h 40 % 0.0 mm
21:10 16.5 °C 3.2 °C 1012.8 hPa WSW 9.3 km/h 9.3 km/h 41 % 0.0 mm
21:15 16.4 °C 3.1 °C 1012.8 hPa SW 5.8 km/h 6.1 km/h 41 % 0.0 mm
21:20 16.3 °C 3.3 °C 1012.8 hPa SW 5.6 km/h 5.8 km/h 42 % 0.0 mm
21:25 16.2 °C 3.3 °C 1012.8 hPa WSW 5.6 km/h 5.6 km/h 42 % 0.0 mm
21:30 12.2 °C 5.8 °C 1013.8 hPa West 3.2 km/h 8.0 km/h 65 % 0.0 mm
21:31 16.1 °C 3.2 °C 1013.8 hPa West 3.9 km/h 4.2 km/h 42 % 0.0 mm
21:36 16.0 °C 3.1 °C 1013.8 hPa SSW 3.7 km/h 3.7 km/h 42 % 0.0 mm
21:40 12.3 °C 6.1 °C 1013.8 hPa WSW 3.2 km/h 4.8 km/h 66 % 0.0 mm
21:41 15.8 °C 3.2 °C 1013.8 hPa SW 5.6 km/h 5.6 km/h 43 % 0.0 mm
21:46 15.7 °C 3.2 °C 1013.8 hPa WSW 5.6 km/h 5.6 km/h 43 % 0.0 mm
21:50 12.4 °C 6.2 °C 1013.8 hPa SW 3.2 km/h 4.8 km/h 66 % 0.0 mm
21:56 15.6 °C 3.4 °C 1013.8 hPa WSW 7.4 km/h 7.4 km/h 44 % 0.0 mm
22:00 12.3 °C 5.9 °C 1013.8 hPa Calm   3.2 km/h 65 % 0.0 mm
22:01 15.4 °C 3.5 °C 1012.8 hPa SW 5.6 km/h 5.6 km/h 45 % 0.0 mm
22:06 15.3 °C 3.4 °C 1012.8 hPa SW 7.4 km/h 7.4 km/h 45 % 0.0 mm
22:10 12.4 °C 6.0 °C 1012.8 hPa WSW 3.2 km/h 6.4 km/h 65 % 0.0 mm
22:11 15.2 °C 3.7 °C 1012.8 hPa WSW 6.1 km/h 6.1 km/h 46 % 0.0 mm
22:16 15.1 °C 3.6 °C 1013.8 hPa WSW 3.9 km/h 4.7 km/h 46 % 0.0 mm
22:20 12.0 °C 5.2 °C 1014.8 hPa WSW 3.2 km/h 4.8 km/h 63 % 0.0 mm
22:21 15.0 °C 3.4 °C 1013.8 hPa SW 3.7 km/h 3.9 km/h 46 % 0.0 mm
22:26 14.9 °C 3.7 °C 1013.8 hPa SW 4.2 km/h 4.2 km/h 47 % 0.0 mm
22:30 12.0 °C 4.9 °C 1014.8 hPa WSW 1.6 km/h 4.8 km/h 62 % 0.0 mm
22:31 14.7 °C 3.5 °C 1013.8 hPa SW 5.6 km/h 5.6 km/h 47 % 0.0 mm
22:36 14.7 °C 3.8 °C 1013.8 hPa SW 4.2 km/h 4.2 km/h 48 % 0.0 mm
22:40 12.1 °C 5.3 °C 1013.8 hPa West 3.2 km/h 4.8 km/h 63 % 0.0 mm
22:41 14.6 °C 3.7 °C 1013.8 hPa SW 5.6 km/h 5.6 km/h 48 % 0.0 mm
22:46 14.6 °C 3.7 °C 1012.8 hPa SSW 3.7 km/h 4.2 km/h 48 % 0.0 mm
22:50 12.2 °C 5.6 °C 1013.8 hPa West 3.2 km/h 3.2 km/h 64 % 0.0 mm
22:51 14.5 °C 3.9 °C 1012.8 hPa SW 7.4 km/h 7.4 km/h 49 % 0.0 mm
22:56 14.5 °C 3.9 °C 1012.8 hPa WSW 5.6 km/h 5.6 km/h 49 % 0.0 mm
23:00 12.5 °C 6.6 °C 1013.8 hPa West 3.2 km/h 4.8 km/h 67 % 0.0 mm
23:01 14.5 °C 4.2 °C 1012.8 hPa WSW 5.6 km/h 5.6 km/h 50 % 0.0 mm
23:06 14.4 °C 4.1 °C 1012.8 hPa WSW 3.7 km/h 3.7 km/h 50 % 0.0 mm
23:10 12.4 °C 6.7 °C 1013.8 hPa West 3.2 km/h 4.8 km/h 68 % 0.0 mm
23:11 14.4 °C 4.1 °C 1012.8 hPa SW 3.7 km/h 3.7 km/h 50 % 0.0 mm
23:16 14.4 °C 4.1 °C 1013.8 hPa SW 5.6 km/h 5.6 km/h 50 % 0.0 mm
23:20 12.3 °C 7.0 °C 1012.8 hPa Calm   3.2 km/h 70 % 0.0 mm
23:21 14.3 °C 4.0 °C 1013.8 hPa WNW 1.9 km/h 1.9 km/h 50 % 0.0 mm
23:26 14.3 °C 4.0 °C 1013.8 hPa West 3.7 km/h 3.7 km/h 50 % 0.0 mm
23:30 12.2 °C 6.7 °C 1012.8 hPa WSW 3.2 km/h 4.8 km/h 69 % 0.0 mm
23:36 14.3 °C 4.0 °C 1012.8 hPa WSW 1.9 km/h 2.3 km/h 50 % 0.0 mm
23:40 12.3 °C 7.6 °C 1012.8 hPa West 3.2 km/h 9.7 km/h 73 % 0.0 mm
23:41 14.3 °C 4.3 °C 1012.8 hPa West 3.7 km/h 3.7 km/h 51 % 0.0 mm
23:46 14.3 °C 4.3 °C 1013.8 hPa WSW 3.9 km/h 3.9 km/h 51 % 0.0 mm
23:51 14.2 °C 4.2 °C 1013.8 hPa West 3.7 km/h 3.7 km/h 51 % 0.0 mm
23:56 14.2 °C 4.2 °C 1013.8 hPa West 3.9 km/h 4.7 km/h 51 % 0.0 mm
Meteo Sesrovires
Elogis d' Weather Underground - 3.5 mb

Guio original per  Jim McMurry - jmcmurry@mwt.net Adaptat per a la plantilla per  Wim van der Kuil - Leuven-Template.eu

Trobareu la nostra informacio del temps tambe a:

Weather Underground

AWEKAS